Terminal Aerodrome Forecast
Issued by NWS

Home | Current Version | Previous Version | Text Only | Print | Product List | Glossary On
Versions: 1 2 3 4 5 6 7 8 9 10 11 12 13 14 15 16
000
FTUS46 KMTR 212300
TAFSNS
TAF
KSNS 212335Z 2200/2224 27014KT P6SM SKC
     FM220200 28005KT P6SM SKC
     FM220900 VRB03KT P6SM BKN015
     FM221700 12005KT P6SM SCT015
     FM222000 28012KT P6SM SKC=

USA.gov is the U.S. government's official web portal to all federal, state and local government web resources and services.